Time;durP1;ratioP1;P1;durP2;ratioP2;P2;SDS_P1;SDS_P2;PMS_P1;PMS_P2;Temp;Humidity;BMP_temperature;BMP_pressure;BME280_temperature;BME280_humidity;BME280_pressure;Samples;Min_cycle;Max_cycle;Signal;HPM_P1;HPM_P2
2021/09/03 00:13:33;;;;;;;14.57;13.07;;;12.50;99.90;;;;;;6185789;22;20455;-60
2021/09/03 00:15:59;;;;;;;15.03;13.50;;;12.40;99.90;;;;;;6187727;23;20463;-59
2021/09/03 00:52:54;;;;;;;15.30;13.33;;;12.00;99.90;;;;;;6196446;23;20458;-57
2021/09/03 00:55:21;;;;;;;13.60;12.20;;;12.00;99.90;;;;;;6215187;23;20419;-58
2021/09/03 00:57:51;;;;;;;13.90;12.27;;;12.00;99.90;;;;;;6217213;23;20418;-58
2021/09/03 01:00:18;;;;;;;15.10;13.17;;;12.00;99.90;;;;;;6216430;23;20419;-58
2021/09/03 01:02:45;;;;;;;18.93;13.30;;;11.90;99.90;;;;;;6218013;23;20418;-58
2021/09/03 01:05:13;;;;;;;15.43;13.50;;;12.00;99.90;;;;;;6218936;23;20851;-58
2021/09/03 01:07:40;;;;;;;15.27;13.67;;;12.00;99.90;;;;;;6219059;23;20442;-58
2021/09/03 01:10:09;;;;;;;14.73;13.23;;;12.00;99.90;;;;;;6219069;23;20426;-59
2021/09/03 01:12:36;;;;;;;13.60;12.27;;;12.00;99.90;;;;;;6219367;23;20473;-59
2021/09/03 01:15:04;;;;;;;14.13;12.60;;;12.00;99.90;;;;;;6219316;23;20394;-59
2021/09/03 01:17:33;;;;;;;13.47;11.80;;;12.00;99.90;;;;;;6219324;23;20469;-59
2021/09/03 01:20:00;;;;;;;14.47;12.97;;;12.00;99.90;;;;;;6218762;23;20453;-59
2021/09/03 01:22:28;;;;;;;15.60;14.10;;;12.00;99.90;;;;;;6219473;23;20419;-59
2021/09/03 01:24:55;;;;;;;16.23;13.67;;;11.90;99.90;;;;;;6219067;23;20423;-59
2021/09/03 01:27:22;;;;;;;15.20;12.60;;;11.90;99.90;;;;;;6218819;23;20739;-59
2021/09/03 01:29:49;;;;;;;13.37;12.10;;;11.80;99.90;;;;;;6218977;23;20504;-59
2021/09/03 01:32:16;;;;;;;14.23;12.73;;;11.80;99.90;;;;;;6219284;23;20454;-59
2021/09/03 01:34:43;;;;;;;13.80;12.50;;;11.80;99.90;;;;;;6218979;23;20419;-59
2021/09/03 01:37:10;;;;;;;13.77;12.10;;;11.80;99.90;;;;;;6218648;23;20398;-59
2021/09/03 01:39:39;;;;;;;13.53;12.13;;;11.70;99.90;;;;;;6218158;23;20525;-59
2021/09/03 01:42:06;;;;;;;16.30;12.10;;;11.70;99.90;;;;;;6218085;23;20433;-59
2021/09/03 01:44:36;;;;;;;15.03;12.80;;;11.70;99.90;;;;;;6218538;23;20871;-59
2021/09/03 01:47:03;;;;;;;13.40;12.10;;;11.60;99.90;;;;;;6219372;23;20423;-59
2021/09/03 01:49:30;;;;;;;14.27;12.87;;;11.60;99.90;;;;;;6218169;23;20489;-59
2021/09/03 01:51:57;;;;;;;14.27;12.20;;;11.60;99.90;;;;;;6218016;23;20393;-59
2021/09/03 02:27:32;;;;;;;13.50;11.17;;;11.30;99.90;;;;;;6216805;22;20454;-59
2021/09/03 02:29:59;;;;;;;12.63;11.30;;;11.30;99.90;;;;;;6218336;23;20472;-59
2021/09/03 02:32:29;;;;;;;14.40;12.90;;;11.20;99.90;;;;;;6218592;23;20430;-59
2021/09/03 02:34:56;;;;;;;13.37;11.67;;;11.20;99.90;;;;;;6217921;23;20438;-58
2021/09/03 02:37:22;;;;;;;12.67;11.30;;;11.20;99.90;;;;;;6217798;23;20734;-59
2021/09/03 02:39:50;;;;;;;12.50;11.00;;;11.20;99.90;;;;;;6218026;23;20415;-59
2021/09/03 02:42:17;;;;;;;15.10;10.87;;;11.10;99.90;;;;;;6218279;23;20507;-59
2021/09/03 03:18:34;;;;;;;18.67;12.40;;;10.90;99.90;;;;;;6216310;23;20431;-62
2021/09/03 03:21:04;;;;;;;13.17;11.87;;;10.80;99.90;;;;;;6218611;23;20778;-62
2021/09/03 03:23:31;;;;;;;12.83;11.57;;;10.90;99.90;;;;;;6217761;23;20454;-62
2021/09/03 03:25:58;;;;;;;12.93;11.40;;;10.90;99.90;;;;;;6217858;23;20472;-62
2021/09/03 04:38:36;;;;;;;15.43;13.83;;;10.40;99.90;;;;;;6213327;23;20911;-65
2021/09/03 04:41:03;;;;;;;16.17;12.87;;;10.40;99.90;;;;;;6219686;23;20393;-65
2021/09/03 04:43:30;;;;;;;14.70;13.23;;;10.40;99.90;;;;;;6218502;23;20415;-65
2021/09/03 04:45:57;;;;;;;15.07;12.50;;;10.40;99.90;;;;;;6218477;23;20859;-65
2021/09/03 04:48:24;;;;;;;14.37;12.87;;;10.40;99.90;;;;;;6218753;23;20447;-65
2021/09/03 04:50:52;;;;;;;14.27;12.77;;;10.40;99.90;;;;;;6219862;23;20421;-65
2021/09/03 04:53:19;;;;;;;13.23;11.80;;;10.50;99.90;;;;;;6218140;23;20413;-64
2021/09/03 04:55:47;;;;;;;14.87;12.20;;;10.50;99.90;;;;;;6219257;23;20839;-64
2021/09/03 04:58:14;;;;;;;13.00;11.70;;;10.50;99.90;;;;;;6218693;23;20401;-64
2021/09/03 05:00:41;;;;;;;15.70;12.80;;;10.50;99.90;;;;;;6219292;23;20430;-64
2021/09/03 05:03:08;;;;;;;13.90;11.90;;;10.40;99.90;;;;;;6218886;23;20720;-64
2021/09/03 05:05:35;;;;;;;13.33;11.50;;;10.50;99.90;;;;;;6219381;23;20431;-64
2021/09/03 05:08:02;;;;;;;13.43;11.77;;;10.40;99.90;;;;;;6218997;23;20447;-64
2021/09/03 05:10:31;;;;;;;12.70;11.40;;;10.40;99.90;;;;;;6219652;23;20844;-64
2021/09/03 05:12:59;;;;;;;13.40;12.20;;;10.50;99.90;;;;;;6219180;23;20419;-64
2021/09/03 05:15:37;;;;;;;16.67;12.30;;;10.40;99.90;;;;;;6218699;23;20401;-64
2021/09/03 05:54:31;;;;;;;15.67;14.10;;;11.60;99.90;;;;;;6186847;23;20450;-62
2021/09/03 05:56:58;;;;;;;15.30;13.00;;;11.80;99.90;;;;;;6188659;23;20422;-62
2021/09/03 07:08:28;;;;;;;17.93;16.10;;;17.20;1.00;;;;;;6216024;22;20467;-61
2021/09/03 07:10:55;;;;;;;20.10;15.77;;;17.40;1.00;;;;;;6216619;23;20411;-61
2021/09/03 07:47:49;;;;;;;18.17;15.20;;;20.30;1.00;;;;;;6187238;22;20455;-59
2021/09/03 07:50:17;;;;;;;16.40;14.67;;;20.70;1.00;;;;;;6187999;23;20452;-59
2021/09/03 07:52:45;;;;;;;18.93;15.30;;;20.90;1.00;;;;;;6188006;23;20463;-60
2021/09/03 07:55:12;;;;;;;15.60;14.10;;;21.20;1.00;;;;;;6187725;23;20426;-60
2021/09/03 07:57:46;;;;;;;22.23;14.70;;;21.40;1.00;;;;;;6187732;23;20428;-60
2021/09/03 08:00:19;;;;;;;19.83;15.17;;;21.70;1.00;;;;;;6187716;23;20419;-59
2021/09/03 08:02:46;;;;;;;16.37;14.00;;;21.90;1.00;;;;;;6187253;23;20903;-59
2021/09/03 08:05:15;;;;;;;15.33;13.80;;;22.10;1.00;;;;;;6187324;23;20709;-59
2021/09/03 08:07:44;;;;;;;15.47;13.87;;;22.40;1.00;;;;;;6186834;23;20428;-60
2021/09/03 08:10:13;;;;;;;17.97;14.50;;;22.70;1.00;;;;;;6187252;23;20747;-60
2021/09/03 08:12:40;;;;;;;15.83;13.30;;;23.10;1.00;;;;;;6188333;23;20423;-60
2021/09/03 08:15:12;;;;;;;15.10;13.50;;;23.30;1.00;;;;;;6189853;23;20451;-60
2021/09/03 08:17:39;;;;;;;16.10;14.50;;;23.50;1.00;;;;;;6189119;23;20420;-60
2021/09/03 08:20:09;;;;;;;17.37;13.20;;;23.80;1.00;;;;;;6189436;23;20422;-60
2021/09/03 08:22:37;;;;;;;15.70;13.17;;;23.80;1.00;;;;;;6190065;23;20420;-60
2021/09/03 08:25:05;;;;;;;14.67;13.20;;;24.10;1.00;;;;;;6189760;23;20419;-60
2021/09/03 08:27:35;;;;;;;16.07;12.27;;;24.30;1.00;;;;;;6189437;23;20848;-60
2021/09/03 08:30:04;;;;;;;17.80;12.80;;;24.30;1.00;;;;;;6189413;23;20451;-60
2021/09/03 08:32:31;;;;;;;15.03;12.50;;;24.60;1.00;;;;;;6189296;23;20416;-60
2021/09/03 08:34:58;;;;;;;16.10;12.37;;;24.80;1.00;;;;;;6189070;23;20853;-60
2021/09/03 08:37:28;;;;;;;14.10;11.10;;;24.90;1.00;;;;;;6188763;23;20428;-60
2021/09/03 08:40:02;;;;;;;14.60;11.30;;;25.10;1.00;;;;;;6188974;23;20422;-59
2021/09/03 08:42:31;;;;;;;12.00;10.27;;;25.40;1.00;;;;;;6189759;23;20390;-59
2021/09/03 08:45:01;;;;;;;12.03;10.90;;;25.60;1.00;;;;;;6189450;23;20772;-59
2021/09/03 08:47:28;;;;;;;13.07;11.40;;;25.80;1.00;;;;;;6188192;23;20498;-58
2021/09/03 08:49:55;;;;;;;11.90;10.80;;;25.80;1.00;;;;;;6187600;23;20502;-59
2021/09/03 08:52:26;;;;;;;12.13;10.60;;;26.00;99.90;;;;;;6188185;23;20419;-58
2021/09/03 08:54:53;;;;;;;12.40;10.77;;;25.90;99.90;;;;;;6188928;23;20423;-58
2021/09/03 08:57:22;;;;;;;13.27;11.70;;;26.30;99.90;;;;;;6187869;23;20857;-59
2021/09/03 08:59:51;;;;;;;11.33;10.33;;;26.90;99.90;;;;;;6189132;23;20416;-59
2021/09/03 09:02:20;;;;;;;10.93;9.70;;;26.90;99.90;;;;;;6189081;23;20459;-59
2021/09/03 09:04:51;;;;;;;11.47;10.40;;;26.50;99.90;;;;;;6189351;23;20510;-59
2021/09/03 09:07:18;;;;;;;10.40;9.40;;;26.60;99.90;;;;;;6188631;23;20478;-59
2021/09/03 09:09:48;;;;;;;11.37;10.37;;;26.70;99.90;;;;;;6187572;23;20451;-59
2021/09/03 09:12:20;;;;;;;9.73;8.83;;;26.80;99.90;;;;;;6188022;23;20478;-59
2021/09/03 09:15:03;;;;;;;10.00;9.20;;;27.00;99.90;;;;;;6188747;23;20402;-59
2021/09/03 09:17:34;;;;;;;8.93;8.13;;;26.80;99.90;;;;;;6188411;23;20398;-59
2021/09/03 09:20:01;;;;;;;8.90;8.07;;;27.00;99.90;;;;;;6187442;23;20459;-58
2021/09/03 09:22:28;;;;;;;10.30;9.20;;;27.20;99.90;;;;;;6188938;23;20762;-58
2021/09/03 09:25:20;;;;;;;9.83;8.90;;;27.40;99.90;;;;;;6188066;23;20423;-58
2021/09/03 09:27:48;;;;;;;11.50;8.60;;;27.40;99.90;;;;;;6188785;23;20419;-57
2021/09/03 09:30:22;;;;;;;9.53;8.73;;;27.10;99.90;;;;;;6188926;23;20494;-57
2021/09/03 10:05:44;;;;;;;9.00;8.20;;;29.10;99.90;;;;;;6217684;22;20458;-51
2021/09/03 10:08:14;;;;;;;8.23;7.63;;;29.20;99.90;;;;;;6217570;23;20446;-57
2021/09/03 10:10:40;;;;;;;7.70;7.10;;;29.10;99.90;;;;;;6217937;23;20450;-58
2021/09/03 10:13:08;;;;;;;8.47;7.73;;;29.20;99.90;;;;;;6216445;23;20465;-57
2021/09/03 10:15:38;;;;;;;8.07;7.47;;;29.00;99.90;;;;;;6216615;23;20418;-58
2021/09/03 10:18:05;;;;;;;58.27;14.03;;;29.40;99.90;;;;;;6216663;23;20786;-56
2021/09/03 10:20:32;;;;;;;9.87;7.77;;;28.80;99.90;;;;;;6217487;23;20418;-56
2021/09/03 10:23:01;;;;;;;9.20;7.97;;;27.60;99.90;;;;;;6217659;23;20700;-57
2021/09/03 10:25:52;;;;;;;7.30;6.70;;;28.70;99.90;;;;;;6217400;23;20423;-54
2021/09/03 10:28:29;;;;;;;7.80;7.20;;;29.20;99.90;;;;;;6217754;23;20713;-56
2021/09/03 10:31:07;;;;;;;7.70;7.10;;;29.20;99.90;;;;;;6217115;23;20454;-55
2021/09/03 10:33:41;;;;;;;8.40;7.77;;;29.50;99.90;;;;;;6216382;23;20465;-57
2021/09/03 10:36:08;;;;;;;8.10;7.53;;;29.40;99.90;;;;;;6215691;23;20423;-57
2021/09/03 10:38:42;;;;;;;7.83;7.23;;;29.00;99.90;;;;;;6217345;23;20497;-57
2021/09/03 10:41:13;;;;;;;8.50;7.70;;;29.20;99.90;;;;;;6217755;23;20461;-57
2021/09/03 10:43:45;;;;;;;8.30;7.60;;;29.00;99.90;;;;;;6217752;23;20415;-57
2021/09/03 10:46:13;;;;;;;8.67;7.83;;;29.30;99.90;;;;;;6217511;23;20430;-56
2021/09/03 10:48:48;;;;;;;7.93;7.43;;;29.60;99.90;;;;;;6217002;23;20508;-56
2021/09/03 11:25:31;;;;;;;9.00;8.20;;;30.80;99.90;;;;;;6211482;22;20490;-56
2021/09/03 11:28:01;;;;;;;8.30;7.63;;;30.60;99.90;;;;;;6217686;23;20465;-57
2021/09/03 11:30:28;;;;;;;10.20;7.50;;;31.00;99.90;;;;;;6217984;23;20537;-58
2021/09/03 11:32:55;;;;;;;8.03;7.43;;;31.30;99.90;;;;;;6218066;23;20847;-56
2021/09/03 11:35:25;;;;;;;8.57;7.87;;;31.10;99.90;;;;;;6217995;23;20414;-57
2021/09/03 11:37:53;;;;;;;8.97;8.30;;;31.50;99.90;;;;;;6217677;23;20429;-57
2021/09/03 11:40:23;;;;;;;8.33;7.63;;;30.90;99.90;;;;;;6217844;23;20513;-57
2021/09/03 11:43:00;;;;;;;7.87;7.27;;;31.10;99.90;;;;;;6218140;23;20521;-57
2021/09/03 11:45:29;;;;;;;9.17;8.37;;;31.20;99.90;;;;;;6217632;23;20839;-57
2021/09/03 11:48:00;;;;;;;8.87;8.07;;;31.00;99.90;;;;;;6217749;23;20418;-56
2021/09/03 12:25:10;;;;;;;8.83;8.20;;;28.90;99.90;;;;;;6190454;22;20433;-56
2021/09/03 12:27:37;;;;;;;8.37;7.47;;;29.00;99.90;;;;;;6217240;23;20419;-55
2021/09/03 12:30:10;;;;;;;7.10;6.60;;;28.90;99.90;;;;;;6217556;23;20416;-57
2021/09/03 12:32:37;;;;;;;8.37;7.67;;;29.50;99.90;;;;;;6217766;23;20422;-55
2021/09/03 13:08:47;;;;;;;8.90;8.20;;;30.00;99.90;;;;;;6187579;22;20451;-55
2021/09/03 13:11:18;;;;;;;9.57;8.57;;;29.00;99.90;;;;;;6186691;23;20655;-54
2021/09/03 13:13:47;;;;;;;8.40;7.80;;;27.30;99.90;;;;;;6187912;23;20721;-54
2021/09/03 13:16:17;;;;;;;9.10;8.33;;;27.20;99.90;;;;;;6188805;23;20422;-58
2021/09/03 13:18:44;;;;;;;9.87;9.10;;;27.50;99.90;;;;;;6189290;23;20507;-56
2021/09/03 13:21:11;;;;;;;9.47;8.67;;;27.90;99.90;;;;;;6188805;23;20923;-57
2021/09/03 13:23:38;;;;;;;9.27;8.57;;;27.70;99.90;;;;;;6188752;23;20431;-54
2021/09/03 13:26:09;;;;;;;10.67;9.77;;;26.90;99.90;;;;;;6188969;23;20952;-57
2021/09/03 13:28:37;;;;;;;10.80;9.80;;;26.90;99.90;;;;;;6189242;23;20722;-54
2021/09/03 13:31:05;;;;;;;11.03;9.93;;;27.20;99.90;;;;;;6189242;23;20412;-56
2021/09/03 13:33:32;;;;;;;12.23;9.70;;;26.70;99.90;;;;;;6188691;23;20420;-58
2021/09/03 13:36:01;;;;;;;11.93;10.93;;;26.60;99.90;;;;;;6189026;23;20857;-57
2021/09/03 13:38:30;;;;;;;10.50;9.50;;;26.80;99.90;;;;;;6189359;23;20419;-58
2021/09/03 13:40:57;;;;;;;9.80;9.00;;;26.80;99.90;;;;;;6189124;23;20735;-58
2021/09/03 13:43:26;;;;;;;10.90;10.00;;;27.00;99.90;;;;;;6188677;23;20712;-57
2021/09/03 13:45:54;;;;;;;11.00;9.00;;;27.40;99.90;;;;;;6188740;23;20427;-55
2021/09/03 13:48:21;;;;;;;11.10;10.20;;;27.20;99.90;;;;;;6189124;23;20426;-56
2021/09/03 13:50:48;;;;;;;10.47;9.57;;;27.50;99.90;;;;;;6188733;23;20416;-56
2021/09/03 13:53:16;;;;;;;11.63;10.67;;;28.30;99.90;;;;;;6188471;23;20698;-55
2021/09/03 13:55:43;;;;;;;11.03;10.03;;;27.70;99.90;;;;;;6188573;23;20451;-58
2021/09/03 13:58:13;;;;;;;10.43;9.50;;;27.70;99.90;;;;;;6188735;23;20441;-57
2021/09/03 14:35:06;;;;;;;11.50;10.60;;;28.30;99.90;;;;;;6213819;23;20454;-58
2021/09/03 14:37:34;;;;;;;12.23;11.03;;;28.30;99.90;;;;;;6217989;23;20420;-57
2021/09/03 14:40:07;;;;;;;12.40;11.40;;;28.00;99.90;;;;;;6218556;23;20903;-58
2021/09/03 14:42:34;;;;;;;11.60;10.57;;;28.00;99.90;;;;;;6218627;23;20430;-58
2021/09/03 14:45:02;;;;;;;12.30;11.30;;;27.50;99.90;;;;;;6218459;23;20423;-56
2021/09/03 14:47:28;;;;;;;11.87;10.67;;;27.80;99.90;;;;;;6218466;23;20418;-53
2021/09/03 14:49:55;;;;;;;11.30;10.20;;;27.70;99.90;;;;;;6217593;23;20430;-58
2021/09/03 15:26:04;;;;;;;10.90;10.00;;;27.90;99.90;;;;;;6187879;22;20898;-54
2021/09/03 15:28:35;;;;;;;11.77;10.67;;;27.90;99.90;;;;;;6187827;23;20420;-56
2021/09/03 15:31:01;;;;;;;12.33;11.13;;;27.90;99.90;;;;;;6186269;23;20416;-56
2021/09/03 15:33:28;;;;;;;12.90;11.77;;;28.00;99.90;;;;;;6187508;23;20420;-54
2021/09/03 15:36:02;;;;;;;12.47;11.40;;;27.90;99.90;;;;;;6188178;23;20419;-54
2021/09/03 15:38:33;;;;;;;13.97;12.00;;;27.80;99.90;;;;;;6187966;23;20469;-57
2021/09/03 15:41:03;;;;;;;13.43;11.10;;;27.70;99.90;;;;;;6187965;23;20447;-55
2021/09/03 15:43:34;;;;;;;11.27;10.23;;;27.80;99.90;;;;;;6187923;23;20424;-59
2021/09/03 16:20:28;;;;;;;13.47;11.70;;;25.50;99.90;;;;;;6212327;22;20882;-57
2021/09/03 16:22:55;;;;;;;14.60;13.07;;;25.50;99.90;;;;;;6216258;23;20422;-57
2021/09/03 16:25:22;;;;;;;13.80;11.77;;;25.40;99.90;;;;;;6216410;23;20857;-52
2021/09/03 16:27:50;;;;;;;11.67;10.67;;;25.50;99.90;;;;;;6217054;23;20473;-58
2021/09/03 16:30:22;;;;;;;12.80;11.60;;;25.60;99.90;;;;;;6216367;23;20909;-57
2021/09/03 16:32:52;;;;;;;11.43;10.30;;;25.60;99.90;;;;;;6215256;23;20485;-58
2021/09/03 16:35:20;;;;;;;12.43;11.33;;;25.70;99.90;;;;;;6219153;23;20426;-56
2021/09/03 16:37:51;;;;;;;14.20;12.90;;;25.50;99.90;;;;;;6218251;23;20419;-59
2021/09/03 17:13:59;;;;;;;11.40;10.50;;;24.00;99.90;;;;;;6215280;23;20458;-55
2021/09/03 17:16:26;;;;;;;12.57;11.37;;;23.80;99.90;;;;;;6217532;23;21156;-56
2021/09/03 17:18:53;;;;;;;13.07;11.80;;;23.60;99.90;;;;;;6218227;23;20419;-55
2021/09/03 17:21:21;;;;;;;12.07;10.90;;;23.60;99.90;;;;;;6217538;23;20450;-56
2021/09/03 17:23:48;;;;;;;16.70;10.80;;;23.50;99.90;;;;;;6216854;23;20422;-53
2021/09/03 17:26:17;;;;;;;13.20;11.30;;;23.50;99.90;;;;;;6216126;23;20419;-55
2021/09/03 17:28:47;;;;;;;14.27;11.10;;;23.30;99.90;;;;;;6217707;23;20427;-57
2021/09/03 18:05:44;;;;;;;12.87;11.57;;;21.50;99.90;;;;;;6213199;22;20466;-55
2021/09/03 18:08:11;;;;;;;13.63;12.20;;;21.50;99.90;;;;;;6218233;23;20465;-54
2021/09/03 18:10:38;;;;;;;12.87;11.63;;;21.30;99.90;;;;;;6218463;23;20426;-51
2021/09/03 18:13:06;;;;;;;13.27;11.50;;;21.20;1.00;;;;;;6218546;23;20419;-55
2021/09/03 18:15:43;;;;;;;13.23;12.03;;;21.10;1.00;;;;;;6218429;23;20419;-57
2021/09/03 18:18:15;;;;;;;14.00;11.73;;;21.00;1.00;;;;;;6219154;23;20505;-54
2021/09/03 18:20:44;;;;;;;13.00;11.70;;;20.90;1.00;;;;;;6218489;23;20782;-56
2021/09/03 18:23:12;;;;;;;13.03;11.90;;;20.80;1.00;;;;;;6218588;23;20860;-54
2021/09/03 18:25:39;;;;;;;12.33;11.03;;;20.70;1.00;;;;;;6218710;23;20421;-54
2021/09/03 18:28:09;;;;;;;13.20;12.00;;;20.60;1.00;;;;;;6219023;23;20423;-54
2021/09/03 18:30:36;;;;;;;13.50;12.13;;;20.50;1.00;;;;;;6218198;23;20421;-56
2021/09/03 18:33:03;;;;;;;14.10;11.77;;;20.40;1.00;;;;;;6218772;23;20430;-57
2021/09/03 18:35:32;;;;;;;15.83;12.47;;;20.30;1.00;;;;;;6218811;23;20419;-51
2021/09/03 18:38:00;;;;;;;13.90;11.60;;;20.20;1.00;;;;;;6218621;23;20433;-54
2021/09/03 18:40:28;;;;;;;15.33;11.17;;;20.20;1.00;;;;;;6218218;23;20419;-49
2021/09/03 18:42:57;;;;;;;13.17;11.93;;;20.10;1.00;;;;;;6217539;23;20457;-55
2021/09/03 18:45:23;;;;;;;12.67;11.43;;;20.00;1.00;;;;;;6218896;23;20438;-52
2021/09/03 18:47:52;;;;;;;14.60;13.07;;;19.90;1.00;;;;;;6218408;23;20811;-52
2021/09/03 18:50:20;;;;;;;15.73;13.80;;;19.80;1.00;;;;;;6218255;23;20423;-57
2021/09/03 18:52:47;;;;;;;13.70;12.40;;;19.80;1.00;;;;;;6218510;23;20426;-50
2021/09/03 18:55:18;;;;;;;13.77;12.30;;;19.70;1.00;;;;;;6218438;23;20459;-52
2021/09/03 18:57:47;;;;;;;15.40;13.90;;;19.70;1.00;;;;;;6218421;23;20414;-54
2021/09/03 19:00:15;;;;;;;14.73;13.23;;;19.60;1.00;;;;;;6217591;23;20419;-53
2021/09/03 19:02:43;;;;;;;13.00;11.70;;;19.60;1.00;;;;;;6218121;23;20494;-55
2021/09/03 19:05:13;;;;;;;13.87;12.43;;;19.50;1.00;;;;;;6217736;23;20415;-54
2021/09/03 19:07:40;;;;;;;15.90;13.60;;;19.50;1.00;;;;;;6218223;23;20521;-53
2021/09/03 19:10:12;;;;;;;16.00;13.80;;;19.40;1.00;;;;;;6218338;23;20492;-57
2021/09/03 19:12:43;;;;;;;14.60;11.70;;;19.40;1.00;;;;;;6218104;23;20410;-53
2021/09/03 19:15:11;;;;;;;14.67;13.17;;;19.30;1.00;;;;;;6217238;23;20414;-56
2021/09/03 19:17:41;;;;;;;14.43;12.97;;;19.20;1.00;;;;;;6218004;23;20414;-52
2021/09/03 19:20:22;;;;;;;15.13;13.80;;;19.10;1.00;;;;;;6216148;23;20486;-55
2021/09/03 19:22:49;;;;;;;14.60;13.10;;;19.00;1.00;;;;;;6216300;23;20459;-57
2021/09/03 19:58:59;;;;;;;15.90;12.37;;;18.20;1.00;;;;;;6214209;23;20512;-54
2021/09/03 20:01:28;;;;;;;13.10;11.90;;;18.10;1.00;;;;;;6215333;23;20455;-57
2021/09/03 20:03:55;;;;;;;17.90;16.10;;;18.00;1.00;;;;;;6215843;23;20846;-54
2021/09/03 20:06:22;;;;;;;16.47;14.77;;;18.00;1.00;;;;;;6216215;23;20422;-54
2021/09/03 20:08:49;;;;;;;15.73;14.27;;;18.00;1.00;;;;;;6216983;23;20419;-56
2021/09/03 20:11:16;;;;;;;17.37;15.70;;;18.00;1.00;;;;;;6217429;23;20450;-54
2021/09/03 20:13:43;;;;;;;22.33;16.87;;;17.90;1.00;;;;;;6217549;23;20422;-57
2021/09/03 20:16:15;;;;;;;17.53;15.73;;;17.90;1.00;;;;;;6217217;23;20496;-56
2021/09/03 20:18:42;;;;;;;17.30;15.73;;;17.90;1.00;;;;;;6217273;23;20472;-57
2021/09/03 20:21:09;;;;;;;16.17;14.63;;;17.90;1.00;;;;;;6217404;23;20489;-54
2021/09/03 20:23:38;;;;;;;16.20;14.40;;;17.80;1.00;;;;;;6217327;23;20808;-57
2021/09/03 20:26:07;;;;;;;18.40;15.80;;;17.80;1.00;;;;;;6217404;23;20449;-54
2021/09/03 20:28:36;;;;;;;17.20;15.20;;;17.80;1.00;;;;;;6216333;23;20422;-58
2021/09/03 20:31:03;;;;;;;21.40;17.17;;;17.70;1.00;;;;;;6216149;23;20419;-56
2021/09/03 20:33:31;;;;;;;18.20;15.00;;;17.70;1.00;;;;;;6214526;23;20393;-58
2021/09/03 20:36:04;;;;;;;17.57;15.90;;;17.60;23.10;;;;;;6217562;23;20415;-56
2021/09/03 20:38:34;;;;;;;17.17;15.50;;;17.50;76.60;;;;;;6217516;23;20713;-52
2021/09/03 20:41:02;;;;;;;19.10;17.27;;;17.40;96.00;;;;;;6217054;23;20419;-57
2021/09/03 20:43:29;;;;;;;17.67;15.97;;;17.30;11.60;;;;;;6216252;23;20426;-55
2021/09/03 20:45:57;;;;;;;18.17;16.47;;;17.30;99.90;;;;;;6217207;23;20423;-56
2021/09/03 20:48:24;;;;;;;17.17;15.47;;;17.30;99.90;;;;;;6216951;23;20734;-54
2021/09/03 20:50:55;;;;;;;17.80;16.00;;;17.20;99.90;;;;;;6216266;23;20426;-58
2021/09/03 20:53:22;;;;;;;18.73;16.80;;;17.10;99.90;;;;;;6216970;23;20454;-56
2021/09/03 20:55:55;;;;;;;19.30;17.20;;;17.10;99.90;;;;;;6216758;23;20418;-56
2021/09/03 20:58:22;;;;;;;19.07;17.10;;;17.00;99.90;;;;;;6216892;23;20906;-58
2021/09/03 21:00:49;;;;;;;19.00;17.07;;;16.90;99.90;;;;;;6216493;23;20437;-58
2021/09/03 21:03:20;;;;;;;17.93;16.10;;;16.80;99.90;;;;;;6216501;23;20423;-57
2021/09/03 21:05:47;;;;;;;16.77;15.20;;;16.80;99.90;;;;;;6216935;23;20898;-58
2021/09/03 21:08:16;;;;;;;18.50;16.80;;;16.80;99.90;;;;;;6217193;23;20770;-55
2021/09/03 21:10:43;;;;;;;18.50;16.53;;;16.80;99.90;;;;;;6214691;23;20480;-58
2021/09/03 21:13:13;;;;;;;18.80;17.00;;;16.80;1.00;;;;;;6216049;23;20419;-58
2021/09/03 21:15:41;;;;;;;18.33;16.50;;;16.70;1.00;;;;;;6217508;23;20712;-56
2021/09/03 21:18:09;;;;;;;18.77;16.87;;;16.70;1.00;;;;;;6217014;23;20415;-56
2021/09/03 21:20:39;;;;;;;23.40;17.40;;;16.50;22.70;;;;;;6216890;23;20393;-56
2021/09/03 21:23:06;;;;;;;19.23;17.33;;;16.50;99.90;;;;;;6219158;23;20553;-58
2021/09/03 21:25:38;;;;;;;21.77;19.77;;;16.40;99.90;;;;;;6219041;23;20462;-55
2021/09/03 21:28:05;;;;;;;20.33;17.87;;;16.40;99.90;;;;;;6219034;23;20454;-58
2021/09/03 21:30:33;;;;;;;18.87;17.17;;;16.30;99.90;;;;;;6218639;23;20414;-57
2021/09/03 21:33:00;;;;;;;19.97;17.20;;;16.30;99.90;;;;;;6218354;23;20438;-56
2021/09/03 21:35:28;;;;;;;18.07;16.37;;;16.30;99.90;;;;;;6218909;23;20419;-56
2021/09/03 21:37:55;;;;;;;17.97;16.27;;;16.20;1.00;;;;;;6219081;23;20728;-56
2021/09/03 21:40:22;;;;;;;17.30;15.60;;;16.20;28.60;;;;;;6219244;23;20422;-57
2021/09/03 21:42:54;;;;;;;17.47;15.73;;;16.10;1.00;;;;;;6217674;23;20761;-56
2021/09/03 21:45:24;;;;;;;18.43;16.57;;;16.10;10.00;;;;;;6219010;23;20419;-56
2021/09/03 21:47:51;;;;;;;18.80;16.80;;;16.10;1.00;;;;;;6219026;23;20426;-55
2021/09/03 21:50:18;;;;;;;19.50;17.70;;;16.10;99.90;;;;;;6218762;23;20462;-58
2021/09/03 21:52:46;;;;;;;19.57;17.73;;;16.00;99.90;;;;;;6218562;23;20517;-57
2021/09/03 21:55:15;;;;;;;20.23;18.13;;;16.00;1.00;;;;;;6218979;23;20847;-58
2021/09/03 21:57:42;;;;;;;20.67;18.70;;;15.90;1.00;;;;;;6218700;23;20450;-56
2021/09/03 22:00:13;;;;;;;20.77;18.70;;;15.90;1.00;;;;;;6219467;23;20419;-57
2021/09/03 22:02:43;;;;;;;23.93;21.43;;;15.90;1.00;;;;;;6218011;23;20550;-59
2021/09/03 22:05:10;;;;;;;21.63;19.53;;;15.80;99.90;;;;;;6218904;23;20855;-58
2021/09/03 22:07:45;;;;;;;21.77;19.27;;;15.80;65.30;;;;;;6218763;23;20699;-58
2021/09/03 22:10:15;;;;;;;21.43;19.13;;;15.70;1.00;;;;;;6218635;23;20461;-58
2021/09/03 22:12:43;;;;;;;21.40;19.37;;;15.70;51.10;;;;;;6218688;23;20426;-58
2021/09/03 22:15:11;;;;;;;19.73;17.27;;;15.60;1.00;;;;;;6218806;23;20419;-56
2021/09/03 22:17:40;;;;;;;19.87;17.97;;;15.60;1.00;;;;;;6218719;23;20852;-58
2021/09/03 22:20:11;;;;;;;20.73;18.53;;;15.50;99.90;;;;;;6218287;23;20415;-58
2021/09/03 22:22:40;;;;;;;19.60;17.67;;;15.50;1.00;;;;;;6218690;23;20491;-58
2021/09/03 22:25:10;;;;;;;19.73;17.77;;;15.50;1.00;;;;;;6218619;23;20684;-58
2021/09/03 22:27:40;;;;;;;20.43;16.90;;;15.40;1.00;;;;;;6218579;23;20465;-58
2021/09/03 22:30:08;;;;;;;19.53;17.70;;;15.40;99.90;;;;;;6218637;23;20443;-59
2021/09/03 22:32:40;;;;;;;18.97;17.07;;;15.40;1.00;;;;;;6217419;23;20655;-58
2021/09/03 22:35:08;;;;;;;20.80;18.30;;;15.40;99.90;;;;;;6218714;23;20461;-59
2021/09/03 22:37:35;;;;;;;20.17;18.17;;;15.30;1.00;;;;;;6218914;23;20418;-58
2021/09/03 22:40:02;;;;;;;20.00;18.20;;;15.40;1.00;;;;;;6217872;23;20475;-59
2021/09/03 22:42:32;;;;;;;20.07;17.90;;;15.40;99.90;;;;;;6217830;23;20897;-59
2021/09/03 22:45:01;;;;;;;20.07;17.93;;;15.30;99.90;;;;;;6218875;23;20430;-58
2021/09/03 22:47:28;;;;;;;21.27;17.73;;;15.30;99.90;;;;;;6218761;23;20725;-54
2021/09/03 22:49:57;;;;;;;19.53;17.43;;;15.30;99.90;;;;;;6218552;23;20488;-57
2021/09/03 22:52:26;;;;;;;19.73;17.70;;;15.20;1.00;;;;;;6218165;23;20415;-59
2021/09/03 22:54:56;;;;;;;18.93;16.93;;;15.20;92.10;;;;;;6218197;23;20495;-59
2021/09/03 22:57:23;;;;;;;21.43;18.53;;;15.10;1.00;;;;;;6217940;23;20934;-58
2021/09/03 22:59:51;;;;;;;20.33;18.33;;;15.10;99.90;;;;;;6218310;23;20424;-59
2021/09/03 23:02:21;;;;;;;19.07;17.27;;;15.10;99.90;;;;;;6218051;23;20763;-59
2021/09/03 23:04:53;;;;;;;20.40;18.40;;;15.10;1.00;;;;;;6218084;23;20419;-59
2021/09/03 23:07:26;;;;;;;19.93;18.03;;;15.10;1.00;;;;;;6218167;23;20783;-59
2021/09/03 23:09:53;;;;;;;20.10;18.17;;;15.10;1.00;;;;;;6218321;23;20414;-57
2021/09/03 23:12:20;;;;;;;21.93;19.07;;;15.10;99.90;;;;;;6217966;23;20891;-59
2021/09/03 23:14:47;;;;;;;21.73;19.63;;;15.00;50.40;;;;;;6217933;23;20419;-58
2021/09/03 23:17:15;;;;;;;21.80;17.97;;;15.00;99.90;;;;;;6218647;23;20419;-59
2021/09/03 23:19:43;;;;;;;22.87;18.40;;;14.90;1.00;;;;;;6218582;23;20422;-59
2021/09/03 23:22:10;;;;;;;20.50;18.50;;;14.90;1.00;;;;;;6217873;23;20458;-59
2021/09/03 23:24:39;;;;;;;25.40;22.87;;;14.80;1.00;;;;;;6217780;23;20442;-59
2021/09/03 23:27:06;;;;;;;25.47;22.60;;;14.90;62.70;;;;;;6218035;23;20433;-59
2021/09/03 23:29:33;;;;;;;27.63;23.17;;;14.90;83.90;;;;;;6218363;23;20496;-59
2021/09/03 23:32:00;;;;;;;27.43;23.67;;;14.90;99.90;;;;;;6217995;23;20489;-59
2021/09/03 23:34:27;;;;;;;25.50;22.90;;;14.90;99.90;;;;;;6217782;23;20418;-58
2021/09/03 23:36:57;;;;;;;25.40;22.80;;;14.90;99.90;;;;;;6217863;23;20844;-59
2021/09/03 23:39:24;;;;;;;22.07;19.93;;;14.90;99.90;;;;;;6217874;23;20419;-59
2021/09/03 23:41:52;;;;;;;23.87;21.27;;;14.80;1.00;;;;;;6218394;23;20415;-59
2021/09/03 23:44:22;;;;;;;23.70;21.33;;;14.80;1.00;;;;;;6217371;23;20477;-59